Terminal Aerodrome Forecast
Issued by NWS

Home | Current Version | Previous Version | Graphics & Text | Print | Product List | Glossary On
Versions: 1 2 3 4 5 6 7 8 9 10 11 12 13 14
000
FTUS45 KGGW 221138
TAFGDV
TAF
KGDV 221138Z 2212/2312 29006KT P6SM SCT090
     FM221400 30014G23KT P6SM FEW120
     FM221800 30022G30KT P6SM FEW100
     FM230200 32022G31KT P6SM VCSH BKN070
     FM230900 31013KT P6SM SCT070=

USA.gov is the U.S. government's official web portal to all federal, state and local government web resources and services.